Terminal Aerodrome Forecast
Issued by NWS Binghamton, NY

Home | Current Version | Previous Version | Text Only | Print | Product List | Glossary On
Versions: 1 2 3 4 5 6 7 8 9 10 11 12 13 14 15 16 17 18 19 20
000
FTUS41 KBGM 221100
TAFAVP
TAF
KAVP 221133Z 2212/2312 30006KT P6SM OVC040
      TEMPO 2212/2216 OVC028
     FM221600 31012G20KT P6SM BKN035
     FM230000 33006KT P6SM FEW035=

USA.gov is the U.S. government's official web portal to all federal, state and local government web resources and services.